createdAt,value
2018-01-31T01:52:38.882Z,78.63
2018-01-31T01:55:07.387Z,78.91
2018-01-31T01:57:35.794Z,78.69
2018-01-31T02:00:04.258Z,78.42
2018-01-31T02:02:32.691Z,78.78
2018-01-31T02:05:01.116Z,78.56
2018-01-31T02:07:29.555Z,78.75
2018-01-31T02:09:58.043Z,78.87
2018-01-31T02:12:26.433Z,78.90
2018-01-31T02:14:54.833Z,78.81
2018-01-31T02:17:23.359Z,78.72
2018-01-31T02:19:51.771Z,78.73
2018-01-31T02:22:20.212Z,79.14
2018-01-31T02:24:48.692Z,78.47
2018-01-31T02:27:17.127Z,78.78
2018-01-31T02:29:45.529Z,78.75
2018-01-31T02:32:14.135Z,78.89
2018-01-31T02:34:42.525Z,78.64
2018-01-31T02:37:10.922Z,78.56
2018-01-31T02:39:51.146Z,78.46
2018-01-31T02:42:19.559Z,78.76
2018-01-31T02:44:47.984Z,78.78
2018-01-31T02:47:16.414Z,78.81
2018-01-31T02:49:44.821Z,78.94
2018-01-31T02:52:13.233Z,79.08
2018-01-31T02:54:41.707Z,78.86
2018-01-31T02:57:10.109Z,78.73
2018-01-31T02:59:38.510Z,78.59
2018-01-31T03:02:06.953Z,78.50
2018-01-31T03:04:35.365Z,78.91
2018-01-31T03:07:03.774Z,79.10
2018-01-31T03:09:32.202Z,79.06
2018-01-31T03:12:00.609Z,78.83
2018-01-31T03:14:28.995Z,78.92
2018-01-31T03:16:57.454Z,78.75
2018-01-31T03:19:25.854Z,79.10
2018-01-31T03:21:54.265Z,79.03
2018-01-31T03:24:22.718Z,78.74
2018-01-31T03:26:51.134Z,78.79
2018-01-31T03:29:19.522Z,78.56
2018-01-31T03:31:47.977Z,78.69
2018-01-31T03:34:16.385Z,78.70
2018-01-31T03:36:44.799Z,78.54
2018-01-31T03:39:13.305Z,78.66
2018-01-31T03:41:41.707Z,78.62
2018-01-31T03:44:10.121Z,79.04
2018-01-31T03:46:38.561Z,79.29
2018-01-31T03:49:06.990Z,79.17
2018-01-31T03:51:35.396Z,79.16
2018-01-31T03:54:03.881Z,78.94
2018-01-31T03:56:32.294Z,79.16
2018-01-31T03:59:00.706Z,79.34
2018-01-31T04:01:29.178Z,79.31
2018-01-31T04:03:57.564Z,79.53
2018-01-31T04:06:25.964Z,79.72
2018-01-31T04:08:54.424Z,79.84
2018-01-31T04:11:22.845Z,79.83
2018-01-31T04:13:51.283Z,79.70
2018-01-31T04:16:19.714Z,79.77
2018-01-31T04:18:48.137Z,79.96
2018-01-31T04:21:16.582Z,80.10
2018-01-31T04:23:45.053Z,80.24
2018-01-31T04:26:13.456Z,79.69
2018-01-31T04:28:41.865Z,79.74
2018-01-31T04:31:10.319Z,79.93
2018-01-31T04:33:38.762Z,79.95
2018-01-31T04:36:07.241Z,80.11
2018-01-31T04:38:35.712Z,80.30
2018-01-31T04:41:04.103Z,80.52
2018-01-31T04:43:32.537Z,80.71
2018-01-31T04:46:01.010Z,80.67
2018-01-31T04:48:29.424Z,80.61
2018-01-31T04:50:57.851Z,80.68
2018-01-31T04:53:26.298Z,80.87
2018-01-31T04:55:54.694Z,81.06
2018-01-31T04:58:23.090Z,81.13
2018-01-31T05:00:51.548Z,81.09
2018-01-31T05:03:19.945Z,81.48
2018-01-31T05:05:48.361Z,81.74
2018-01-31T05:08:16.817Z,81.84
2018-01-31T05:10:45.243Z,81.48
2018-01-31T05:13:13.661Z,81.99
2018-01-31T05:15:42.108Z,81.50
2018-01-31T05:18:10.509Z,82.34
2018-01-31T05:20:38.936Z,82.29
2018-01-31T05:23:07.401Z,82.67
2018-01-31T05:25:35.823Z,83.01
2018-01-31T05:28:04.255Z,82.94
2018-01-31T05:30:32.699Z,83.04
2018-01-31T05:33:01.124Z,83.28
2018-01-31T05:35:29.557Z,83.32
2018-01-31T05:37:58.012Z,83.84
2018-01-31T05:40:26.420Z,83.91
2018-01-31T05:42:54.825Z,84.06
2018-01-31T05:45:23.265Z,84.54
2018-01-31T05:47:51.652Z,84.24
2018-01-31T05:50:20.059Z,84.81
2018-01-31T05:52:48.509Z,84.42
2018-01-31T05:55:16.901Z,85.30
2018-01-31T05:57:45.290Z,85.43
2018-01-31T06:00:13.732Z,86.12
2018-01-31T06:02:42.142Z,85.35
2018-01-31T06:05:10.569Z,85.59
2018-01-31T06:07:39.050Z,87.08
2018-01-31T06:10:07.533Z,87.05
2018-01-31T06:12:35.929Z,87.56
2018-01-31T06:15:04.402Z,87.27
2018-01-31T06:17:32.802Z,87.54
2018-01-31T06:20:01.210Z,87.94
2018-01-31T06:22:29.656Z,87.03
2018-01-31T06:24:58.062Z,88.12
2018-01-31T06:27:26.893Z,87.91
2018-01-31T06:29:55.344Z,87.33
2018-01-31T06:32:23.731Z,88.12
2018-01-31T06:34:52.143Z,87.60
2018-01-31T06:37:20.623Z,87.46
2018-01-31T06:39:49.030Z,87.43
2018-01-31T06:42:17.426Z,87.52
2018-01-31T06:44:45.870Z,87.50
2018-01-31T06:47:14.290Z,87.91
2018-01-31T06:49:42.692Z,87.31
2018-01-31T06:52:11.286Z,87.51
2018-01-31T06:54:39.678Z,87.46
2018-01-31T06:57:08.088Z,87.96
2018-01-31T06:59:36.513Z,88.34
2018-01-31T07:02:04.928Z,87.82
2018-01-31T07:04:33.340Z,88.00
2018-01-31T07:07:01.776Z,87.94
2018-01-31T07:09:31.154Z,87.91
2018-01-31T07:11:59.550Z,88.94
2018-01-31T07:14:27.961Z,88.49
2018-01-31T07:16:56.362Z,88.80
2018-01-31T07:19:24.781Z,87.77
2018-01-31T07:21:53.291Z,88.89
2018-01-31T07:24:21.717Z,88.26
2018-01-31T07:26:50.982Z,88.57
2018-01-31T07:29:19.439Z,87.84
2018-01-31T07:31:47.841Z,88.24
2018-01-31T07:34:16.249Z,88.39
2018-01-31T07:36:44.700Z,88.19
2018-01-31T07:39:13.089Z,87.77
2018-01-31T07:41:41.506Z,88.34
2018-01-31T07:44:09.950Z,88.48
2018-01-31T07:46:38.379Z,88.04
2018-01-31T07:49:06.773Z,88.37
2018-01-31T07:51:35.206Z,88.21
2018-01-31T07:54:03.650Z,88.62
2018-01-31T07:56:32.050Z,88.79
2018-01-31T07:59:00.676Z,88.09
2018-01-31T08:01:29.078Z,88.62
2018-01-31T08:03:57.499Z,88.23
2018-01-31T08:06:25.928Z,87.84
2018-01-31T08:08:54.330Z,88.12
2018-01-31T08:11:23.110Z,88.13
2018-01-31T08:13:51.579Z,88.25
2018-01-31T08:16:19.972Z,88.65
2018-01-31T08:18:48.406Z,88.61
2018-01-31T08:21:16.835Z,88.41
2018-01-31T08:23:45.229Z,88.30
2018-01-31T08:26:13.666Z,88.01
2018-01-31T08:28:42.152Z,88.47
2018-01-31T08:31:10.547Z,88.71
2018-01-31T08:33:38.937Z,89.43
2018-01-31T08:36:07.377Z,88.86
2018-01-31T08:38:35.802Z,88.88
2018-01-31T08:41:04.213Z,88.67
2018-01-31T08:43:32.747Z,88.55
2018-01-31T08:46:01.164Z,89.29
2018-01-31T08:48:29.559Z,88.08
2018-01-31T08:50:57.965Z,88.42
2018-01-31T08:53:26.348Z,88.51
2018-01-31T08:55:54.830Z,87.87
2018-01-31T08:58:23.286Z,88.77
2018-01-31T09:00:51.684Z,88.21
2018-01-31T09:03:20.061Z,88.24
2018-01-31T09:05:48.538Z,87.98
2018-01-31T09:08:16.976Z,88.52
2018-01-31T09:10:45.388Z,88.64
2018-01-31T09:13:13.862Z,87.72
2018-01-31T09:15:42.252Z,87.66
2018-01-31T09:18:10.663Z,87.57
2018-01-31T09:20:39.125Z,87.69
2018-01-31T09:23:07.528Z,87.61
2018-01-31T09:25:35.966Z,86.25
2018-01-31T09:28:04.398Z,86.93
2018-01-31T09:30:32.806Z,87.71
2018-01-31T09:33:01.213Z,87.10
2018-01-31T09:35:30.001Z,87.88
2018-01-31T09:37:58.385Z,87.34
2018-01-31T09:40:26.836Z,86.65
2018-01-31T09:42:55.310Z,87.11
2018-01-31T09:45:23.719Z,86.88
2018-01-31T09:47:52.151Z,86.20
2018-01-31T09:50:20.579Z,85.97
2018-01-31T09:52:48.996Z,86.36
2018-01-31T09:55:17.396Z,86.04
2018-01-31T09:57:45.833Z,85.97
2018-01-31T10:00:14.257Z,85.25
2018-01-31T10:02:42.674Z,85.25
2018-01-31T10:05:11.107Z,85.69
2018-01-31T10:07:39.496Z,85.36
2018-01-31T10:10:07.951Z,84.65
2018-01-31T10:12:36.390Z,84.47
2018-01-31T10:15:04.786Z,86.02
2018-01-31T10:17:33.182Z,85.06
2018-01-31T10:20:01.626Z,85.31
2018-01-31T10:22:30.036Z,84.91
2018-01-31T10:24:58.452Z,84.61
2018-01-31T10:27:26.890Z,84.45
2018-01-31T10:29:55.342Z,84.61
2018-01-31T10:32:23.753Z,84.13
2018-01-31T10:34:52.166Z,83.88
2018-01-31T10:37:20.552Z,84.14
2018-01-31T10:39:48.953Z,83.71
2018-01-31T10:42:17.426Z,83.66
2018-01-31T10:44:46.747Z,83.27
2018-01-31T10:47:15.176Z,83.19
2018-01-31T10:49:43.660Z,82.57
2018-01-31T10:52:12.074Z,83.03
2018-01-31T10:57:29.099Z,81.99
2018-01-31T10:59:37.338Z,82.45
2018-01-31T11:02:05.746Z,82.10
2018-01-31T11:04:35.125Z,81.67
2018-01-31T11:07:03.549Z,82.33
2018-01-31T11:09:31.949Z,81.79
2018-01-31T11:12:00.400Z,81.55
2018-01-31T11:14:28.790Z,81.63
2018-01-31T11:16:57.516Z,82.19
2018-01-31T11:19:26.009Z,81.77
2018-01-31T11:21:54.415Z,82.07
2018-01-31T11:24:22.809Z,82.11
2018-01-31T11:26:51.286Z,80.94
2018-01-31T11:29:19.724Z,81.45
2018-01-31T11:31:48.136Z,81.32
2018-01-31T11:34:16.592Z,81.00
2018-01-31T11:36:44.980Z,80.99
2018-01-31T11:39:13.394Z,80.77
2018-01-31T11:41:41.838Z,80.68
2018-01-31T11:44:10.241Z,80.79
2018-01-31T11:46:38.718Z,80.42
2018-01-31T11:49:07.159Z,79.97
2018-01-31T11:51:35.587Z,79.79
2018-01-31T11:54:04.009Z,79.88
2018-01-31T11:56:32.438Z,79.97
2018-01-31T11:59:00.821Z,79.85
2018-01-31T12:01:29.232Z,79.43
2018-01-31T12:03:57.685Z,78.54
2018-01-31T12:06:26.094Z,79.29
2018-01-31T12:08:54.506Z,78.85
2018-01-31T12:11:22.970Z,78.75
2018-01-31T12:17:04.594Z,79.19
2018-01-31T12:19:44.927Z,79.00
2018-01-31T12:22:23.123Z,78.92
2018-01-31T12:25:03.295Z,77.84
2018-01-31T12:27:43.646Z,78.01
2018-01-31T12:30:23.921Z,78.24
2018-01-31T12:33:04.940Z,78.06
2018-01-31T12:35:45.130Z,77.73
2018-01-31T12:38:25.516Z,77.64
2018-01-31T12:40:53.398Z,77.43
2018-01-31T12:43:21.265Z,77.17
2018-01-31T12:45:49.146Z,77.11
2018-01-31T12:48:29.337Z,77.26
2018-01-31T12:51:09.646Z,77.63
2018-01-31T12:53:49.944Z,77.23
2018-01-31T12:59:31.131Z,76.82
2018-01-31T13:02:11.307Z,77.66
2018-01-31T13:04:51.461Z,77.14
2018-01-31T13:10:32.742Z,76.78
2018-01-31T13:13:12.798Z,76.72
2018-01-31T13:15:52.937Z,76.75
2018-01-31T13:18:33.324Z,77.34
2018-01-31T13:24:30.500Z,77.11
2018-01-31T13:30:40.609Z,77.04
2018-01-31T13:33:25.731Z,76.82
2018-01-31T13:36:06.137Z,76.64
2018-01-31T13:38:46.395Z,76.19
2018-01-31T13:41:26.557Z,76.15
2018-01-31T13:44:06.754Z,77.23
2018-01-31T13:46:46.926Z,76.98
2018-01-31T13:49:27.148Z,77.32
2018-01-31T13:52:07.539Z,77.68
2018-01-31T13:54:47.747Z,78.18
2018-01-31T13:57:28.050Z,78.75
2018-01-31T14:03:16.908Z,80.51
2018-01-31T14:05:57.118Z,80.36
2018-01-31T14:08:37.321Z,79.99
2018-01-31T14:11:17.518Z,80.15
2018-01-31T14:13:58.224Z,79.98
2018-01-31T14:16:38.522Z,80.03
2018-01-31T14:19:18.924Z,80.98
2018-01-31T14:22:00.022Z,80.75
2018-01-31T14:24:40.202Z,80.41
2018-01-31T14:27:20.331Z,80.21
2018-01-31T14:30:00.523Z,79.81
2018-01-31T14:32:40.873Z,79.81
2018-01-31T14:35:21.203Z,79.53
2018-01-31T14:37:49.044Z,79.20
2018-01-31T14:40:16.931Z,79.61
2018-01-31T14:42:44.838Z,79.34
2018-01-31T14:45:12.698Z,78.84
2018-01-31T14:47:40.581Z,79.46
2018-01-31T14:50:08.507Z,78.50
2018-01-31T14:52:36.380Z,78.95
2018-01-31T14:55:04.258Z,79.27
2018-01-31T14:57:32.505Z,79.56
2018-01-31T15:00:00.350Z,80.09
2018-01-31T15:02:28.277Z,80.01
2018-01-31T15:04:56.190Z,80.35
2018-01-31T15:07:24.095Z,80.37
2018-01-31T15:09:51.963Z,80.96
2018-01-31T15:12:19.872Z,80.69
2018-01-31T15:14:47.723Z,81.29
2018-01-31T15:17:15.579Z,81.70
2018-01-31T15:19:43.461Z,80.99
2018-01-31T15:22:11.297Z,81.17
2018-01-31T15:24:39.145Z,81.74
2018-01-31T15:27:07.073Z,81.84
2018-01-31T15:29:34.918Z,82.66
2018-01-31T15:32:02.756Z,83.29
2018-01-31T15:34:30.648Z,81.86
2018-01-31T15:36:58.518Z,81.66
2018-01-31T15:39:26.369Z,83.50
2018-01-31T15:41:54.264Z,83.82
2018-01-31T15:44:22.106Z,84.67
2018-01-31T15:46:49.942Z,85.37
2018-01-31T15:49:17.852Z,85.58
2018-01-31T15:51:45.697Z,85.30
2018-01-31T15:54:13.545Z,85.32
2018-01-31T15:56:41.448Z,85.26
2018-01-31T15:59:09.290Z,85.55
2018-01-31T16:01:37.154Z,85.71
2018-01-31T16:04:05.068Z,85.83
2018-01-31T16:06:32.932Z,86.20
2018-01-31T16:09:00.781Z,86.29
2018-01-31T16:11:28.700Z,86.12
2018-01-31T16:13:56.545Z,85.99
2018-01-31T16:16:24.944Z,85.88
2018-01-31T16:22:00.191Z,85.76
2018-01-31T16:24:28.629Z,86.08
2018-01-31T16:26:57.010Z,85.50
2018-01-31T16:29:41.285Z,86.03
2018-01-31T16:32:21.455Z,85.23
2018-01-31T16:34:50.073Z,85.69
2018-01-31T16:37:18.477Z,85.24
2018-01-31T16:39:46.880Z,85.13
2018-01-31T16:42:15.504Z,84.88
2018-01-31T16:44:43.873Z,83.90
2018-01-31T16:47:12.242Z,84.64
2018-01-31T16:49:40.674Z,83.02
2018-01-31T16:52:09.098Z,83.23
2018-01-31T16:54:37.490Z,84.07
2018-01-31T16:57:05.927Z,83.18
2018-01-31T16:59:34.341Z,83.10
2018-01-31T17:02:02.750Z,83.34
2018-01-31T17:04:31.181Z,83.72
2018-01-31T17:06:59.580Z,83.59
2018-01-31T17:09:27.978Z,83.97
2018-01-31T17:11:56.410Z,83.56
2018-01-31T17:14:24.806Z,83.36
2018-01-31T17:16:53.208Z,84.02
2018-01-31T17:19:21.658Z,83.78
2018-01-31T17:21:50.053Z,83.80
2018-01-31T17:24:18.459Z,83.93
2018-01-31T17:26:46.905Z,83.34
2018-01-31T17:29:15.293Z,84.04
2018-01-31T17:31:43.693Z,83.76
2018-01-31T17:34:12.157Z,84.54
2018-01-31T17:36:40.594Z,83.15
2018-01-31T17:39:09.029Z,83.51
2018-01-31T17:41:37.501Z,83.46
2018-01-31T17:44:05.897Z,82.33
2018-01-31T17:46:34.283Z,82.00
2018-01-31T17:49:02.769Z,82.64
2018-01-31T17:51:31.237Z,82.29
2018-01-31T17:54:00.283Z,81.53
2018-01-31T17:56:28.737Z,81.49
2018-01-31T17:58:57.150Z,80.57
2018-01-31T18:01:25.530Z,81.48
2018-01-31T18:03:53.946Z,81.86
2018-01-31T18:06:22.364Z,81.47
2018-01-31T18:08:51.558Z,80.99
2018-01-31T18:11:20.000Z,81.64
2018-01-31T18:13:48.378Z,80.66
2018-01-31T18:16:16.782Z,80.83
2018-01-31T18:18:45.220Z,81.66
2018-01-31T18:21:13.620Z,81.90
2018-01-31T18:26:52.170Z,81.90
2018-01-31T18:29:25.871Z,80.73
2018-01-31T18:31:54.731Z,81.29
2018-01-31T18:34:23.167Z,81.50
2018-01-31T18:36:51.675Z,81.76
2018-01-31T18:39:20.134Z,81.92
2018-01-31T18:41:48.530Z,81.78
2018-01-31T18:44:16.954Z,81.66
2018-01-31T18:46:45.441Z,83.05
2018-01-31T18:49:13.909Z,82.71
2018-01-31T18:51:42.360Z,82.70
2018-01-31T18:54:10.826Z,83.08
2018-01-31T18:56:39.221Z,83.08
2018-01-31T18:59:11.197Z,82.67
2018-01-31T19:01:39.592Z,82.45
2018-01-31T19:04:08.005Z,82.49
2018-01-31T19:06:36.492Z,82.39
2018-01-31T19:09:04.976Z,82.85
2018-01-31T19:11:33.394Z,82.57
2018-01-31T19:14:01.946Z,82.55
2018-01-31T19:16:32.380Z,82.03
2018-01-31T19:19:00.806Z,83.14
2018-01-31T19:21:29.229Z,81.60
2018-01-31T19:23:57.747Z,82.33
2018-01-31T19:26:26.173Z,82.95
2018-01-31T19:28:54.638Z,83.17
2018-01-31T19:31:23.051Z,83.55
2018-01-31T19:33:51.462Z,84.16
2018-01-31T19:38:54.614Z,83.95
2018-01-31T19:41:23.047Z,84.12
2018-01-31T19:43:51.515Z,84.00
2018-01-31T19:46:19.956Z,84.27
2018-01-31T19:48:48.427Z,84.09
2018-01-31T19:51:17.384Z,84.37
2018-01-31T19:53:45.787Z,82.82
2018-01-31T19:56:14.262Z,83.57
2018-01-31T19:58:42.665Z,83.46
2018-01-31T20:01:11.055Z,83.69
2018-01-31T20:03:39.528Z,83.83
2018-01-31T20:06:07.988Z,83.81
2018-01-31T20:08:36.385Z,84.04
2018-01-31T20:11:04.837Z,83.97
2018-01-31T20:13:33.248Z,84.29
2018-01-31T20:16:01.662Z,84.52
2018-01-31T20:18:30.127Z,84.66
2018-01-31T20:20:58.525Z,84.83
2018-01-31T20:23:26.933Z,84.98
2018-01-31T20:25:55.361Z,84.78
2018-01-31T20:28:23.774Z,84.94
2018-01-31T20:30:52.163Z,85.38
2018-01-31T20:33:20.638Z,85.05
2018-01-31T20:35:49.077Z,85.28
2018-01-31T20:38:17.485Z,86.01
2018-01-31T20:40:45.923Z,86.21
2018-01-31T20:43:14.322Z,86.59
2018-01-31T20:45:42.768Z,86.25
2018-01-31T20:48:11.225Z,85.72
2018-01-31T20:50:39.614Z,86.30
2018-01-31T20:53:08.079Z,85.84
2018-01-31T20:55:36.538Z,85.19
2018-01-31T20:58:04.913Z,85.74
2018-01-31T21:00:33.320Z,85.70
2018-01-31T21:03:01.970Z,85.84
2018-01-31T21:05:30.367Z,85.60
2018-01-31T21:07:58.825Z,85.79
2018-01-31T21:10:27.245Z,85.59
2018-01-31T21:12:55.642Z,85.28
2018-01-31T21:15:24.119Z,84.92
2018-01-31T21:17:52.568Z,85.07
2018-01-31T21:20:20.970Z,84.83
2018-01-31T21:22:49.373Z,84.77
2018-01-31T21:25:17.802Z,84.69
2018-01-31T21:27:46.192Z,84.78
2018-01-31T21:30:14.594Z,85.16
2018-01-31T21:32:43.051Z,84.96
2018-01-31T21:35:12.022Z,85.32
2018-01-31T21:37:40.426Z,84.40
2018-01-31T21:40:08.902Z,84.19
2018-01-31T21:42:41.554Z,84.57
2018-01-31T21:45:10.000Z,84.17
2018-01-31T21:47:38.426Z,84.64
2018-01-31T21:50:06.825Z,84.51
2018-01-31T21:52:39.684Z,84.64
2018-01-31T21:55:08.084Z,84.10
2018-01-31T21:57:48.123Z,83.97
2018-01-31T22:00:16.523Z,83.87
2018-01-31T22:02:44.934Z,83.31
2018-01-31T22:05:13.370Z,83.32
2018-01-31T22:07:41.769Z,83.43
2018-01-31T22:10:10.183Z,83.92
2018-01-31T22:12:38.602Z,83.53
2018-01-31T22:15:07.024Z,83.72
2018-01-31T22:17:35.438Z,83.37
2018-01-31T22:20:03.889Z,82.99
2018-01-31T22:22:32.306Z,83.71
2018-01-31T22:25:00.695Z,83.70
2018-01-31T22:27:29.155Z,83.37
2018-01-31T22:29:57.570Z,83.84
2018-01-31T22:32:25.965Z,83.41
2018-01-31T22:34:54.392Z,83.34
2018-01-31T22:37:22.784Z,83.71
2018-01-31T22:39:51.168Z,82.92
2018-01-31T22:42:19.611Z,83.47
2018-01-31T22:44:48.014Z,83.29
2018-01-31T22:47:16.403Z,83.11
2018-01-31T22:49:44.830Z,83.08
2018-01-31T22:52:13.232Z,82.61
2018-01-31T22:54:41.631Z,82.65
2018-01-31T22:57:10.134Z,83.03
2018-01-31T22:59:38.529Z,82.60
2018-01-31T23:02:06.981Z,82.89
2018-01-31T23:04:35.427Z,82.35
2018-01-31T23:07:03.821Z,82.71
2018-01-31T23:09:32.216Z,82.20
2018-01-31T23:12:06.104Z,82.39
2018-01-31T23:14:40.108Z,82.20
2018-01-31T23:17:08.615Z,82.32
2018-01-31T23:19:37.006Z,81.94
2018-01-31T23:22:05.399Z,81.73
2018-01-31T23:24:33.890Z,81.73
2018-01-31T23:27:02.276Z,82.14
2018-01-31T23:32:22.017Z,82.42
2018-01-31T23:34:50.421Z,81.92
2018-01-31T23:37:18.830Z,81.91
2018-01-31T23:39:47.262Z,81.85
2018-01-31T23:42:15.656Z,81.93
2018-01-31T23:44:44.038Z,81.64
2018-01-31T23:47:12.514Z,81.59
2018-01-31T23:49:40.967Z,81.24
2018-01-31T23:52:09.366Z,81.21
2018-01-31T23:54:37.837Z,81.08
2018-01-31T23:57:06.226Z,81.37
2018-01-31T23:59:34.667Z,81.02
